sensor_id;sensor_type;location;lat;lon;timestamp;pressure;altitude;pressure_sealevel;temperature;humidity
51053;BME280;37093;37.716;-122.060;2024-02-28T00:01:38;100030.51;;;23.05;21.21
51053;BME280;37093;37.716;-122.060;2024-02-28T00:04:06;100031.69;;;21.71;21.51
51053;BME280;37093;37.716;-122.060;2024-02-28T00:06:28;100033.30;;;22.99;21.19
51053;BME280;37093;37.716;-122.060;2024-02-28T00:08:56;100026.85;;;23.56;20.90
51053;BME280;37093;37.716;-122.060;2024-02-28T00:11:20;100021.05;;;23.98;20.69
51053;BME280;37093;37.716;-122.060;2024-02-28T00:13:44;100031.25;;;22.43;20.83
51053;BME280;37093;37.716;-122.060;2024-02-28T00:16:12;100029.58;;;22.96;20.84
51053;BME280;37093;37.716;-122.060;2024-02-28T00:18:34;100029.28;;;23.43;21.01
51053;BME280;37093;37.716;-122.060;2024-02-28T00:21:01;100029.53;;;22.88;20.64
51053;BME280;37093;37.716;-122.060;2024-02-28T00:23:25;100033.11;;;23.18;20.91
51053;BME280;37093;37.716;-122.060;2024-02-28T00:25:52;100035.88;;;22.82;20.62
51053;BME280;37093;37.716;-122.060;2024-02-28T00:30:30;100039.84;;;21.55;21.58
51053;BME280;37093;37.716;-122.060;2024-02-28T00:30:40;100039.91;;;20.60;22.22
51053;BME280;37093;37.716;-122.060;2024-02-28T00:33:06;100039.34;;;22.69;20.36
51053;BME280;37093;37.716;-122.060;2024-02-28T00:35:34;100041.21;;;20.39;22.25
51053;BME280;37093;37.716;-122.060;2024-02-28T00:38:00;100042.72;;;21.68;21.69
51053;BME280;37093;37.716;-122.060;2024-02-28T00:40:23;100043.01;;;20.80;21.73
51053;BME280;37093;37.716;-122.060;2024-02-28T00:42:47;100041.86;;;20.70;21.64
51053;BME280;37093;37.716;-122.060;2024-02-28T00:45:13;100039.78;;;22.19;21.25
51053;BME280;37093;37.716;-122.060;2024-02-28T00:47:38;100039.18;;;21.00;21.64
51053;BME280;37093;37.716;-122.060;2024-02-28T00:50:05;100041.73;;;21.90;21.65
51053;BME280;37093;37.716;-122.060;2024-02-28T00:52:29;100041.22;;;21.39;21.78
51053;BME280;37093;37.716;-122.060;2024-02-28T00:54:58;100040.60;;;22.48;21.42
51053;BME280;37093;37.716;-122.060;2024-02-28T00:57:19;100038.81;;;21.24;21.47
51053;BME280;37093;37.716;-122.060;2024-02-28T00:59:46;100041.40;;;19.21;22.24
51053;BME280;37093;37.716;-122.060;2024-02-28T01:02:08;100043.98;;;19.40;23.08
51053;BME280;37093;37.716;-122.060;2024-02-28T01:04:35;100041.87;;;20.71;22.23
51053;BME280;37093;37.716;-122.060;2024-02-28T01:07:03;100045.13;;;21.54;21.23
51053;BME280;37093;37.716;-122.060;2024-02-28T01:09:25;100044.66;;;20.90;22.33
51053;BME280;37093;37.716;-122.060;2024-02-28T01:11:49;100047.57;;;20.40;22.73
51053;BME280;37093;37.716;-122.060;2024-02-28T01:14:14;100044.96;;;21.75;22.65
51053;BME280;37093;37.716;-122.060;2024-02-28T01:16:41;100042.35;;;21.27;22.87
51053;BME280;37093;37.716;-122.060;2024-02-28T01:19:04;100044.72;;;20.05;24.17
51053;BME280;37093;37.716;-122.060;2024-02-28T01:21:40;100044.98;;;21.38;23.28
51053;BME280;37093;37.716;-122.060;2024-02-28T01:23:57;100043.47;;;20.68;23.56
51053;BME280;37093;37.716;-122.060;2024-02-28T01:26:20;100042.88;;;21.14;23.47
51053;BME280;37093;37.716;-122.060;2024-02-28T01:28:51;100043.01;;;20.92;24.23
51053;BME280;37093;37.716;-122.060;2024-02-28T01:31:10;100046.53;;;20.27;24.81
51053;BME280;37093;37.716;-122.060;2024-02-28T01:33:35;100046.09;;;19.86;25.00
51053;BME280;37093;37.716;-122.060;2024-02-28T01:36:00;100040.93;;;21.12;24.08
51053;BME280;37093;37.716;-122.060;2024-02-28T01:38:25;100042.21;;;20.44;24.19
51053;BME280;37093;37.716;-122.060;2024-02-28T01:40:51;100041.41;;;21.49;23.93
51053;BME280;37093;37.716;-122.060;2024-02-28T01:43:15;100038.53;;;22.30;23.06
51053;BME280;37093;37.716;-122.060;2024-02-28T01:45:42;100037.25;;;22.43;23.53
51053;BME280;37093;37.716;-122.060;2024-02-28T01:48:07;100038.16;;;22.80;23.43
51053;BME280;37093;37.716;-122.060;2024-02-28T01:50:31;100041.15;;;22.74;23.47
51053;BME280;37093;37.716;-122.060;2024-02-28T01:53:03;100044.10;;;22.75;23.20
51053;BME280;37093;37.716;-122.060;2024-02-28T01:55:22;100047.56;;;21.99;24.03
51053;BME280;37093;37.716;-122.060;2024-02-28T01:57:49;100051.47;;;22.56;23.79
51053;BME280;37093;37.716;-122.060;2024-02-28T02:00:13;100050.13;;;22.65;23.91
51053;BME280;37093;37.716;-122.060;2024-02-28T02:02:38;100051.52;;;22.62;24.09
51053;BME280;37093;37.716;-122.060;2024-02-28T02:05:01;100052.86;;;22.74;24.64
51053;BME280;37093;37.716;-122.060;2024-02-28T02:07:27;100051.88;;;22.82;24.65
51053;BME280;37093;37.716;-122.060;2024-02-28T02:09:53;100050.44;;;22.81;24.76
51053;BME280;37093;37.716;-122.060;2024-02-28T02:12:18;100052.26;;;22.65;24.84
51053;BME280;37093;37.716;-122.060;2024-02-28T02:14:41;100054.02;;;22.39;24.96
51053;BME280;37093;37.716;-122.060;2024-02-28T02:17:09;100057.21;;;22.36;25.24
51053;BME280;37093;37.716;-122.060;2024-02-28T02:19:33;100059.74;;;22.38;25.26
51053;BME280;37093;37.716;-122.060;2024-02-28T02:22:00;100060.84;;;22.41;25.22
51053;BME280;37093;37.716;-122.060;2024-02-28T02:24:22;100057.55;;;22.58;25.23
51053;BME280;37093;37.716;-122.060;2024-02-28T02:26:57;100057.94;;;22.63;25.43
51053;BME280;37093;37.716;-122.060;2024-02-28T02:29:12;100061.08;;;22.84;25.63
51053;BME280;37093;37.716;-122.060;2024-02-28T02:31:39;100064.31;;;22.69;25.45
51053;BME280;37093;37.716;-122.060;2024-02-28T02:34:02;100066.34;;;22.73;25.29
51053;BME280;37093;37.716;-122.060;2024-02-28T02:36:29;100065.82;;;22.68;25.35
51053;BME280;37093;37.716;-122.060;2024-02-28T02:38:55;100067.23;;;22.51;25.57
51053;BME280;37093;37.716;-122.060;2024-02-28T02:41:19;100071.48;;;22.63;25.67
51053;BME280;37093;37.716;-122.060;2024-02-28T02:43:42;100071.58;;;22.75;25.44
51053;BME280;37093;37.716;-122.060;2024-02-28T02:46:07;100073.72;;;22.51;25.58
51053;BME280;37093;37.716;-122.060;2024-02-28T02:48:33;100073.70;;;22.70;25.74
51053;BME280;37093;37.716;-122.060;2024-02-28T02:50:57;100074.46;;;22.56;25.96
51053;BME280;37093;37.716;-122.060;2024-02-28T02:53:23;100075.97;;;22.51;25.39
51053;BME280;37093;37.716;-122.060;2024-02-28T02:55:47;100075.16;;;22.42;25.65
51053;BME280;37093;37.716;-122.060;2024-02-28T02:58:13;100075.62;;;22.44;25.50
51053;BME280;37093;37.716;-122.060;2024-02-28T03:00:39;100075.06;;;22.11;25.60
51053;BME280;37093;37.716;-122.060;2024-02-28T03:03:03;100073.35;;;22.18;26.00
51053;BME280;37093;37.716;-122.060;2024-02-28T03:05:29;100076.42;;;22.07;26.04
51053;BME280;37093;37.716;-122.060;2024-02-28T03:07:56;100080.50;;;22.14;26.51
51053;BME280;37093;37.716;-122.060;2024-02-28T03:10:19;100087.79;;;21.83;26.57
51053;BME280;37093;37.716;-122.060;2024-02-28T03:12:45;100083.33;;;22.11;26.55
51053;BME280;37093;37.716;-122.060;2024-02-28T03:15:10;100084.01;;;21.96;26.15
51053;BME280;37093;37.716;-122.060;2024-02-28T03:17:34;100081.54;;;21.76;25.98
51053;BME280;37093;37.716;-122.060;2024-02-28T03:19:58;100084.95;;;21.73;26.35
51053;BME280;37093;37.716;-122.060;2024-02-28T03:22:25;100087.74;;;21.70;26.47
51053;BME280;37093;37.716;-122.060;2024-02-28T03:24:49;100088.77;;;21.84;26.86
51053;BME280;37093;37.716;-122.060;2024-02-28T03:27:14;100089.49;;;21.75;26.97
51053;BME280;37093;37.716;-122.060;2024-02-28T03:29:40;100089.09;;;21.52;27.20
51053;BME280;37093;37.716;-122.060;2024-02-28T03:32:04;100088.77;;;21.45;26.78
51053;BME280;37093;37.716;-122.060;2024-02-28T03:34:29;100091.87;;;21.48;27.22
51053;BME280;37093;37.716;-122.060;2024-02-28T03:36:56;100093.92;;;21.32;27.25
51053;BME280;37093;37.716;-122.060;2024-02-28T03:39:19;100096.53;;;21.34;27.18
51053;BME280;37093;37.716;-122.060;2024-02-28T03:41:46;100093.90;;;21.26;27.55
51053;BME280;37093;37.716;-122.060;2024-02-28T03:44:11;100089.61;;;21.25;27.59
51053;BME280;37093;37.716;-122.060;2024-02-28T03:46:41;100088.68;;;21.09;27.77
51053;BME280;37093;37.716;-122.060;2024-02-28T03:49:01;100092.34;;;20.92;28.06
51053;BME280;37093;37.716;-122.060;2024-02-28T03:51:26;100092.67;;;20.82;28.41
51053;BME280;37093;37.716;-122.060;2024-02-28T03:53:51;100095.12;;;20.26;28.59
51053;BME280;37093;37.716;-122.060;2024-02-28T03:56:28;100099.17;;;19.61;28.88
51053;BME280;37093;37.716;-122.060;2024-02-28T03:58:42;100109.07;;;18.60;29.96
51053;BME280;37093;37.716;-122.060;2024-02-28T04:01:06;100104.72;;;19.76;29.35
51053;BME280;37093;37.716;-122.060;2024-02-28T04:03:32;100106.33;;;19.83;29.40
51053;BME280;37093;37.716;-122.060;2024-02-28T04:05:58;100115.13;;;19.46;29.83
51053;BME280;37093;37.716;-122.060;2024-02-28T04:08:22;100113.64;;;19.66;29.63
51053;BME280;37093;37.716;-122.060;2024-02-28T04:10:48;100111.80;;;19.63;29.58
51053;BME280;37093;37.716;-122.060;2024-02-28T04:13:13;100115.39;;;19.79;29.31
51053;BME280;37093;37.716;-122.060;2024-02-28T04:15:39;100114.33;;;19.84;28.81
51053;BME280;37093;37.716;-122.060;2024-02-28T04:18:04;100120.86;;;19.23;30.12
51053;BME280;37093;37.716;-122.060;2024-02-28T04:20:32;100124.47;;;18.96;30.43
51053;BME280;37093;37.716;-122.060;2024-02-28T04:23:07;100128.40;;;18.25;31.02
51053;BME280;37093;37.716;-122.060;2024-02-28T04:25:19;100132.51;;;17.51;32.34
51053;BME280;37093;37.716;-122.060;2024-02-28T04:27:42;100130.83;;;17.66;32.40
51053;BME280;37093;37.716;-122.060;2024-02-28T04:30:09;100127.75;;;18.04;32.02
51053;BME280;37093;37.716;-122.060;2024-02-28T04:32:33;100131.77;;;18.37;31.81
51053;BME280;37093;37.716;-122.060;2024-02-28T04:35:01;100133.81;;;18.11;32.16
51053;BME280;37093;37.716;-122.060;2024-02-28T04:37:25;100137.52;;;18.43;31.91
51053;BME280;37093;37.716;-122.060;2024-02-28T04:39:49;100138.95;;;18.60;31.60
51053;BME280;37093;37.716;-122.060;2024-02-28T04:42:14;100138.03;;;18.73;31.44
51053;BME280;37093;37.716;-122.060;2024-02-28T04:44:39;100137.10;;;18.81;31.16
51053;BME280;37093;37.716;-122.060;2024-02-28T04:47:06;100140.02;;;18.74;30.91
51053;BME280;37093;37.716;-122.060;2024-02-28T04:49:29;100145.53;;;18.33;31.66
51053;BME280;37093;37.716;-122.060;2024-02-28T04:51:56;100148.71;;;18.41;31.70
51053;BME280;37093;37.716;-122.060;2024-02-28T04:54:19;100145.25;;;18.32;31.97
51053;BME280;37093;37.716;-122.060;2024-02-28T04:56:46;100149.54;;;18.51;32.33
51053;BME280;37093;37.716;-122.060;2024-02-28T04:59:12;100151.43;;;18.21;32.21
51053;BME280;37093;37.716;-122.060;2024-02-28T05:01:35;100154.18;;;18.29;31.98
51053;BME280;37093;37.716;-122.060;2024-02-28T05:04:00;100154.73;;;18.48;32.45
51053;BME280;37093;37.716;-122.060;2024-02-28T05:06:24;100158.40;;;15.71;34.16
51053;BME280;37093;37.716;-122.060;2024-02-28T05:08:50;100156.90;;;16.95;34.28
51053;BME280;37093;37.716;-122.060;2024-02-28T05:11:16;100157.84;;;16.84;33.92
51053;BME280;37093;37.716;-122.060;2024-02-28T05:13:44;100157.80;;;16.65;33.52
51053;BME280;37093;37.716;-122.060;2024-02-28T05:16:05;100161.99;;;16.62;34.12
51053;BME280;37093;37.716;-122.060;2024-02-28T05:18:33;100163.44;;;17.25;33.33
51053;BME280;37093;37.716;-122.060;2024-02-28T05:21:47;100171.67;;;17.65;32.97
51053;BME280;37093;37.716;-122.060;2024-02-28T05:23:20;100177.02;;;17.91;32.70
51053;BME280;37093;37.716;-122.060;2024-02-28T05:25:48;100175.10;;;17.98;32.16
51053;BME280;37093;37.716;-122.060;2024-02-28T05:28:10;100167.47;;;18.32;31.62
51053;BME280;37093;37.716;-122.060;2024-02-28T05:30:37;100166.98;;;18.23;31.56
51053;BME280;37093;37.716;-122.060;2024-02-28T05:33:01;100171.26;;;18.53;31.00
51053;BME280;37093;37.716;-122.060;2024-02-28T05:35:25;100171.57;;;18.49;30.61
51053;BME280;37093;37.716;-122.060;2024-02-28T05:37:55;100173.26;;;18.48;30.65
51053;BME280;37093;37.716;-122.060;2024-02-28T05:40:16;100171.54;;;18.59;30.58
51053;BME280;37093;37.716;-122.060;2024-02-28T05:42:40;100170.30;;;18.48;31.63
51053;BME280;37093;37.716;-122.060;2024-02-28T05:45:10;100167.74;;;18.37;31.70
51053;BME280;37093;37.716;-122.060;2024-02-28T05:47:35;100167.77;;;18.38;32.22
51053;BME280;37093;37.716;-122.060;2024-02-28T05:50:03;100167.24;;;18.18;32.30
51053;BME280;37093;37.716;-122.060;2024-02-28T05:52:21;100165.70;;;18.35;32.36
51053;BME280;37093;37.716;-122.060;2024-02-28T05:54:47;100165.45;;;17.58;32.83
51053;BME280;37093;37.716;-122.060;2024-02-28T05:57:11;100169.08;;;17.23;33.24
51053;BME280;37093;37.716;-122.060;2024-02-28T05:59:36;100171.98;;;17.83;32.76
51053;BME280;37093;37.716;-122.060;2024-02-28T06:02:02;100173.04;;;17.78;32.14
51053;BME280;37093;37.716;-122.060;2024-02-28T06:04:32;100176.65;;;17.68;32.46
51053;BME280;37093;37.716;-122.060;2024-02-28T06:06:51;100172.43;;;17.80;32.84
51053;BME280;37093;37.716;-122.060;2024-02-28T06:09:16;100168.17;;;18.03;32.67
51053;BME280;37093;37.716;-122.060;2024-02-28T06:11:42;100172.27;;;17.88;33.20
51053;BME280;37093;37.716;-122.060;2024-02-28T06:14:08;100177.32;;;17.58;33.46
51053;BME280;37093;37.716;-122.060;2024-02-28T06:16:33;100176.68;;;17.78;32.97
51053;BME280;37093;37.716;-122.060;2024-02-28T06:19:00;100175.78;;;17.87;32.55
51053;BME280;37093;37.716;-122.060;2024-02-28T06:21:25;100175.72;;;17.85;32.34
51053;BME280;37093;37.716;-122.060;2024-02-28T06:23:57;100175.88;;;17.84;32.39
51053;BME280;37093;37.716;-122.060;2024-02-28T06:26:16;100177.04;;;17.96;32.66
51053;BME280;37093;37.716;-122.060;2024-02-28T06:28:41;100174.20;;;17.98;32.28
51053;BME280;37093;37.716;-122.060;2024-02-28T06:31:04;100176.89;;;17.90;32.35
51053;BME280;37093;37.716;-122.060;2024-02-28T06:33:39;100179.13;;;17.99;32.19
51053;BME280;37093;37.716;-122.060;2024-02-28T06:35:55;100183.56;;;17.69;32.64
51053;BME280;37093;37.716;-122.060;2024-02-28T06:38:18;100181.25;;;17.65;31.87
51053;BME280;37093;37.716;-122.060;2024-02-28T06:40:43;100182.83;;;17.88;32.09
51053;BME280;37093;37.716;-122.060;2024-02-28T06:43:08;100182.69;;;17.94;31.99
51053;BME280;37093;37.716;-122.060;2024-02-28T06:45:32;100181.09;;;17.75;32.39
51053;BME280;37093;37.716;-122.060;2024-02-28T06:48:00;100181.40;;;17.95;32.14
51053;BME280;37093;37.716;-122.060;2024-02-28T06:50:24;100180.47;;;17.61;31.49
51053;BME280;37093;37.716;-122.060;2024-02-28T06:52:49;100180.99;;;17.89;31.81
51053;BME280;37093;37.716;-122.060;2024-02-28T06:55:16;100179.04;;;17.76;32.07
51053;BME280;37093;37.716;-122.060;2024-02-28T06:57:39;100178.50;;;17.93;31.77
51053;BME280;37093;37.716;-122.060;2024-02-28T07:00:06;100179.02;;;17.95;32.43
51053;BME280;37093;37.716;-122.060;2024-02-28T07:02:32;100178.17;;;17.95;32.22
51053;BME280;37093;37.716;-122.060;2024-02-28T07:04:54;100178.91;;;17.64;31.73
51053;BME280;37093;37.716;-122.060;2024-02-28T07:07:19;100176.76;;;17.85;32.01
51053;BME280;37093;37.716;-122.060;2024-02-28T07:09:46;100176.26;;;17.73;32.06
51053;BME280;37093;37.716;-122.060;2024-02-28T07:12:11;100175.48;;;17.74;32.59
51053;BME280;37093;37.716;-122.060;2024-02-28T07:14:39;100175.94;;;17.68;32.63
51053;BME280;37093;37.716;-122.060;2024-02-28T07:17:01;100177.47;;;17.70;32.67
51053;BME280;37093;37.716;-122.060;2024-02-28T07:19:26;100176.69;;;17.61;32.17
51053;BME280;37093;37.716;-122.060;2024-02-28T07:21:53;100177.43;;;17.70;32.56
51053;BME280;37093;37.716;-122.060;2024-02-28T07:24:14;100178.17;;;17.64;32.88
51053;BME280;37093;37.716;-122.060;2024-02-28T07:26:46;100173.64;;;17.63;33.27
51053;BME280;37093;37.716;-122.060;2024-02-28T07:29:05;100174.23;;;17.62;33.17
51053;BME280;37093;37.716;-122.060;2024-02-28T07:31:29;100176.74;;;17.59;33.65
51053;BME280;37093;37.716;-122.060;2024-02-28T07:33:58;100176.44;;;17.46;33.50
51053;BME280;37093;37.716;-122.060;2024-02-28T07:36:20;100181.41;;;17.33;33.34
51053;BME280;37093;37.716;-122.060;2024-02-28T07:38:46;100182.55;;;16.96;33.99
51053;BME280;37093;37.716;-122.060;2024-02-28T07:41:12;100184.42;;;16.88;34.18
51053;BME280;37093;37.716;-122.060;2024-02-28T07:43:35;100185.30;;;17.02;34.33
51053;BME280;37093;37.716;-122.060;2024-02-28T07:46:00;100186.33;;;16.72;34.62
51053;BME280;37093;37.716;-122.060;2024-02-28T07:48:26;100185.78;;;16.59;34.85
51053;BME280;37093;37.716;-122.060;2024-02-28T07:50:51;100182.43;;;16.74;34.91
51053;BME280;37093;37.716;-122.060;2024-02-28T07:53:15;100183.11;;;16.55;35.00
51053;BME280;37093;37.716;-122.060;2024-02-28T07:55:42;100182.35;;;16.54;34.99
51053;BME280;37093;37.716;-122.060;2024-02-28T07:58:08;100183.43;;;16.69;34.63
51053;BME280;37093;37.716;-122.060;2024-02-28T08:00:31;100181.30;;;16.46;34.21
51053;BME280;37093;37.716;-122.060;2024-02-28T08:03:01;100182.01;;;16.46;34.34
51053;BME280;37093;37.716;-122.060;2024-02-28T08:05:21;100185.40;;;16.37;34.18
51053;BME280;37093;37.716;-122.060;2024-02-28T08:07:53;100186.49;;;16.75;33.80
51053;BME280;37093;37.716;-122.060;2024-02-28T08:10:12;100186.91;;;16.70;33.60
51053;BME280;37093;37.716;-122.060;2024-02-28T08:12:36;100189.16;;;17.00;33.33
51053;BME280;37093;37.716;-122.060;2024-02-28T08:15:02;100189.94;;;17.01;33.45
51053;BME280;37093;37.716;-122.060;2024-02-28T08:17:27;100185.39;;;17.08;33.35
51053;BME280;37093;37.716;-122.060;2024-02-28T08:19:52;100187.12;;;17.20;33.25
51053;BME280;37093;37.716;-122.060;2024-02-28T08:22:17;100188.76;;;17.00;33.36
51053;BME280;37093;37.716;-122.060;2024-02-28T08:24:42;100186.21;;;17.11;33.19
51053;BME280;37093;37.716;-122.060;2024-02-28T08:27:11;100189.42;;;17.10;33.25
51053;BME280;37093;37.716;-122.060;2024-02-28T08:29:32;100185.90;;;17.04;33.49
51053;BME280;37093;37.716;-122.060;2024-02-28T08:31:58;100188.40;;;17.10;33.24
51053;BME280;37093;37.716;-122.060;2024-02-28T08:34:24;100188.51;;;17.06;32.89
51053;BME280;37093;37.716;-122.060;2024-02-28T08:36:48;100190.35;;;16.92;33.48
51053;BME280;37093;37.716;-122.060;2024-02-28T08:39:14;100191.55;;;16.97;33.00
51053;BME280;37093;37.716;-122.060;2024-02-28T08:41:48;100193.10;;;17.05;32.83
51053;BME280;37093;37.716;-122.060;2024-02-28T08:44:03;100193.79;;;17.08;32.65
51053;BME280;37093;37.716;-122.060;2024-02-28T08:46:29;100194.70;;;17.04;32.68
51053;BME280;37093;37.716;-122.060;2024-02-28T08:48:55;100194.13;;;16.98;33.02
51053;BME280;37093;37.716;-122.060;2024-02-28T08:51:24;100189.18;;;16.83;32.85
51053;BME280;37093;37.716;-122.060;2024-02-28T08:53:46;100188.69;;;16.81;32.51
51053;BME280;37093;37.716;-122.060;2024-02-28T08:56:13;100189.59;;;16.69;32.54
51053;BME280;37093;37.716;-122.060;2024-02-28T08:58:34;100187.21;;;16.62;32.68
51053;BME280;37093;37.716;-122.060;2024-02-28T09:00:59;100184.77;;;16.74;33.04
51053;BME280;37093;37.716;-122.060;2024-02-28T09:03:26;100184.04;;;16.84;32.65
51053;BME280;37093;37.716;-122.060;2024-02-28T09:05:50;100186.66;;;16.40;33.01
51053;BME280;37093;37.716;-122.060;2024-02-28T09:08:14;100188.92;;;16.59;32.81
51053;BME280;37093;37.716;-122.060;2024-02-28T09:10:39;100188.92;;;16.33;33.06
51053;BME280;37093;37.716;-122.060;2024-02-28T09:13:05;100187.31;;;16.34;34.17
51053;BME280;37093;37.716;-122.060;2024-02-28T09:15:32;100187.96;;;16.27;33.72
51053;BME280;37093;37.716;-122.060;2024-02-28T09:17:56;100185.63;;;16.19;34.07
51053;BME280;37093;37.716;-122.060;2024-02-28T09:20:20;100185.11;;;16.15;34.25
51053;BME280;37093;37.716;-122.060;2024-02-28T09:22:46;100183.60;;;16.13;34.39
51053;BME280;37093;37.716;-122.060;2024-02-28T09:25:11;100181.02;;;16.13;34.42
51053;BME280;37093;37.716;-122.060;2024-02-28T09:27:41;100183.72;;;16.15;34.49
51053;BME280;37093;37.716;-122.060;2024-02-28T09:30:00;100185.92;;;16.12;34.96
51053;BME280;37093;37.716;-122.060;2024-02-28T09:32:26;100178.97;;;16.33;34.73
51053;BME280;37093;37.716;-122.060;2024-02-28T09:34:50;100181.80;;;16.18;34.04
51053;BME280;37093;37.716;-122.060;2024-02-28T09:37:16;100180.89;;;16.35;34.56
51053;BME280;37093;37.716;-122.060;2024-02-28T09:39:42;100177.96;;;16.27;34.32
51053;BME280;37093;37.716;-122.060;2024-02-28T09:42:10;100176.73;;;16.14;34.14
51053;BME280;37093;37.716;-122.060;2024-02-28T09:44:31;100179.11;;;16.19;34.28
51053;BME280;37093;37.716;-122.060;2024-02-28T09:47:00;100180.25;;;16.10;33.99
51053;BME280;37093;37.716;-122.060;2024-02-28T09:49:24;100180.15;;;16.11;34.02
51053;BME280;37093;37.716;-122.060;2024-02-28T09:51:53;100182.82;;;16.20;35.25
51053;BME280;37093;37.716;-122.060;2024-02-28T09:54:13;100181.52;;;16.18;35.19
51053;BME280;37093;37.716;-122.060;2024-02-28T09:56:36;100179.64;;;16.30;35.13
51053;BME280;37093;37.716;-122.060;2024-02-28T09:59:02;100176.71;;;16.25;35.33
51053;BME280;37093;37.716;-122.060;2024-02-28T10:01:27;100175.03;;;16.33;35.65
51053;BME280;37093;37.716;-122.060;2024-02-28T10:04:05;100174.56;;;16.35;35.66
51053;BME280;37093;37.716;-122.060;2024-02-28T10:06:18;100172.99;;;16.33;35.71
51053;BME280;37093;37.716;-122.060;2024-02-28T10:08:42;100167.07;;;16.27;35.55
51053;BME280;37093;37.716;-122.060;2024-02-28T10:11:11;100162.33;;;16.14;35.87
51053;BME280;37093;37.716;-122.060;2024-02-28T10:13:33;100162.20;;;16.14;35.16
51053;BME280;37093;37.716;-122.060;2024-02-28T10:15:58;100159.61;;;16.18;34.68
51053;BME280;37093;37.716;-122.060;2024-02-28T10:18:22;100157.39;;;16.21;34.93
51053;BME280;37093;37.716;-122.060;2024-02-28T10:21:02;100154.27;;;16.21;35.29
51053;BME280;37093;37.716;-122.060;2024-02-28T10:23:14;100152.17;;;16.14;35.93
51053;BME280;37093;37.716;-122.060;2024-02-28T10:25:44;100151.08;;;15.54;36.46
51053;BME280;37093;37.716;-122.060;2024-02-28T10:28:06;100151.40;;;15.72;36.21
51053;BME280;37093;37.716;-122.060;2024-02-28T10:30:28;100151.33;;;15.73;36.38
51053;BME280;37093;37.716;-122.060;2024-02-28T10:33:10;100145.10;;;15.89;35.58
51053;BME280;37093;37.716;-122.060;2024-02-28T10:35:19;100142.80;;;15.72;36.23
51053;BME280;37093;37.716;-122.060;2024-02-28T10:37:44;100140.38;;;15.93;35.22
51053;BME280;37093;37.716;-122.060;2024-02-28T10:40:12;100135.89;;;15.78;35.72
51053;BME280;37093;37.716;-122.060;2024-02-28T10:42:35;100132.99;;;15.63;35.70
51053;BME280;37093;37.716;-122.060;2024-02-28T10:45:00;100134.18;;;15.68;36.33
51053;BME280;37093;37.716;-122.060;2024-02-28T10:47:24;100132.37;;;15.61;35.86
51053;BME280;37093;37.716;-122.060;2024-02-28T10:49:50;100130.60;;;15.69;35.90
51053;BME280;37093;37.716;-122.060;2024-02-28T10:52:16;100132.90;;;15.61;36.01
51053;BME280;37093;37.716;-122.060;2024-02-28T10:54:42;100130.37;;;15.64;36.33
51053;BME280;37093;37.716;-122.060;2024-02-28T10:57:06;100129.60;;;15.57;35.98
51053;BME280;37093;37.716;-122.060;2024-02-28T10:59:39;100127.77;;;15.69;36.84
51053;BME280;37093;37.716;-122.060;2024-02-28T11:02:00;100127.23;;;15.88;36.46
51053;BME280;37093;37.716;-122.060;2024-02-28T11:04:20;100128.41;;;15.85;36.76
51053;BME280;37093;37.716;-122.060;2024-02-28T11:06:55;100121.40;;;15.91;35.86
51053;BME280;37093;37.716;-122.060;2024-02-28T11:09:11;100121.75;;;15.93;36.13
51053;BME280;37093;37.716;-122.060;2024-02-28T11:11:35;100118.73;;;15.85;36.27
51053;BME280;37093;37.716;-122.060;2024-02-28T11:14:06;100116.73;;;16.03;36.03
51053;BME280;37093;37.716;-122.060;2024-02-28T11:16:31;100114.91;;;15.92;36.41
51053;BME280;37093;37.716;-122.060;2024-02-28T11:18:53;100113.52;;;16.03;35.91
51053;BME280;37093;37.716;-122.060;2024-02-28T11:21:17;100115.88;;;16.04;35.79
51053;BME280;37093;37.716;-122.060;2024-02-28T11:23:41;100113.89;;;15.95;35.68
51053;BME280;37093;37.716;-122.060;2024-02-28T11:26:06;100116.02;;;15.98;35.87
51053;BME280;37093;37.716;-122.060;2024-02-28T11:28:37;100112.56;;;15.73;36.09
51053;BME280;37093;37.716;-122.060;2024-02-28T11:30:57;100116.67;;;15.50;36.43
51053;BME280;37093;37.716;-122.060;2024-02-28T11:33:22;100112.42;;;15.73;36.48
51053;BME280;37093;37.716;-122.060;2024-02-28T11:36:27;100111.38;;;15.65;36.82
51053;BME280;37093;37.716;-122.060;2024-02-28T11:38:21;100112.43;;;15.76;36.53
51053;BME280;37093;37.716;-122.060;2024-02-28T11:40:38;100111.40;;;15.67;36.28
51053;BME280;37093;37.716;-122.060;2024-02-28T11:43:09;100113.68;;;15.85;35.94
51053;BME280;37093;37.716;-122.060;2024-02-28T11:45:29;100115.52;;;15.85;36.03
51053;BME280;37093;37.716;-122.060;2024-02-28T11:47:57;100115.72;;;15.85;35.36
51053;BME280;37093;37.716;-122.060;2024-02-28T11:50:17;100118.62;;;15.81;35.36
51053;BME280;37093;37.716;-122.060;2024-02-28T11:52:45;100117.37;;;15.87;35.21
51053;BME280;37093;37.716;-122.060;2024-02-28T11:55:09;100118.94;;;15.87;34.76
51053;BME280;37093;37.716;-122.060;2024-02-28T11:57:33;100121.56;;;15.91;35.13
51053;BME280;37093;37.716;-122.060;2024-02-28T12:00:01;100121.35;;;15.88;35.54
51053;BME280;37093;37.716;-122.060;2024-02-28T12:02:24;100122.01;;;15.93;35.15
51053;BME280;37093;37.716;-122.060;2024-02-28T12:05:00;100122.42;;;15.80;35.29
51053;BME280;37093;37.716;-122.060;2024-02-28T12:07:15;100122.09;;;15.94;36.16
51053;BME280;37093;37.716;-122.060;2024-02-28T12:09:40;100124.62;;;15.80;36.04